createdAt,value
2019-02-27T00:02:03.600Z,35.07
2019-02-27T00:04:34.826Z,27.17
2019-02-27T00:06:59.648Z,32.77
2019-02-27T00:09:26.693Z,32.17
2019-02-27T00:11:53.762Z,34.40
2019-02-27T00:14:20.844Z,42.70
2019-02-27T00:16:47.932Z,33.10
2019-02-27T00:19:14.991Z,33.90
2019-02-27T00:21:43.517Z,35.53
2019-02-27T00:24:11.038Z,39.63
2019-02-27T00:26:56.622Z,30.53
2019-02-27T00:29:23.731Z,40.40
2019-02-27T00:31:50.775Z,34.27
2019-02-27T00:34:17.823Z,31.30
2019-02-27T00:36:45.690Z,33.23
2019-02-27T00:39:12.848Z,42.33
2019-02-27T00:41:39.895Z,35.07
2019-02-27T00:44:06.959Z,29.27
2019-02-27T00:46:34.011Z,34.27
2019-02-27T00:49:01.140Z,33.07
2019-02-27T00:51:28.209Z,34.93
2019-02-27T00:53:55.965Z,31.27
2019-02-27T00:56:24.233Z,36.30
2019-02-27T00:58:51.282Z,39.50
2019-02-27T01:01:18.341Z,34.43
2019-02-27T01:04:03.943Z,38.70
2019-02-27T01:06:48.564Z,39.87
2019-02-27T01:09:15.635Z,51.27
2019-02-27T01:11:42.710Z,38.13
2019-02-27T01:14:09.791Z,38.80
2019-02-27T01:16:36.984Z,32.37
2019-02-27T01:19:04.797Z,39.13
2019-02-27T01:21:32.364Z,45.33
2019-02-27T01:23:59.459Z,48.97
2019-02-27T01:26:30.559Z,39.03
2019-02-27T01:28:55.495Z,35.90
2019-02-27T01:31:24.050Z,39.73
2019-02-27T01:33:51.548Z,36.10
2019-02-27T01:36:18.660Z,37.77
2019-02-27T01:38:45.700Z,28.50
2019-02-27T01:41:12.739Z,28.10
2019-02-27T01:43:41.045Z,32.63
2019-02-27T01:46:08.102Z,23.10
2019-02-27T01:48:35.152Z,26.50
2019-02-27T01:51:02.225Z,29.87
2019-02-27T01:53:29.340Z,36.67
2019-02-27T01:55:56.968Z,33.50
2019-02-27T01:58:26.424Z,37.07
2019-02-27T02:00:56.103Z,33.77
2019-02-27T02:03:22.440Z,35.00
2019-02-27T02:05:49.522Z,42.07
2019-02-27T02:08:16.566Z,37.33
2019-02-27T02:10:43.620Z,34.20
2019-02-27T02:13:16.711Z,32.73
2019-02-27T02:16:12.707Z,25.43
2019-02-27T02:19:08.054Z,33.03
2019-02-27T02:22:25.696Z,27.47
2019-02-27T02:25:43.625Z,30.10
2019-02-27T02:28:58.422Z,29.37
2019-02-27T02:32:19.603Z,31.43
2019-02-27T02:35:15.683Z,27.47
2019-02-27T02:38:45.323Z,25.40
2019-02-27T02:41:50.711Z,35.03
2019-02-27T02:44:41.880Z,33.97
2019-02-27T02:47:21.647Z,27.00
2019-02-27T02:50:25.803Z,26.97
2019-02-27T02:54:02.258Z,35.40
2019-02-27T02:57:01.552Z,28.10
2019-02-27T03:00:06.475Z,29.57
2019-02-27T03:03:01.957Z,30.10
2019-02-27T03:06:22.197Z,25.27
2019-02-27T03:09:31.729Z,34.07
2019-02-27T03:13:07.978Z,31.93
2019-02-27T03:16:18.519Z,31.77
2019-02-27T03:19:41.228Z,28.17
2019-02-27T03:22:49.082Z,28.23
2019-02-27T03:25:48.058Z,39.27
2019-02-27T03:28:45.994Z,33.47
2019-02-27T03:31:57.841Z,33.47
2019-02-27T03:34:55.742Z,42.30
2019-02-27T03:37:39.224Z,43.87
2019-02-27T03:40:33.061Z,37.57
2019-02-27T03:43:56.853Z,30.33
2019-02-27T03:46:45.210Z,34.67
2019-02-27T03:49:39.676Z,34.57
2019-02-27T03:52:46.701Z,28.20
2019-02-27T03:55:50.724Z,30.60
2019-02-27T03:58:50.091Z,33.10
2019-02-27T04:02:14.097Z,31.53
2019-02-27T04:05:28.376Z,33.43
2019-02-27T04:08:54.130Z,28.17
2019-02-27T04:11:21.302Z,31.50
2019-02-27T04:13:48.673Z,29.77
2019-02-27T04:16:15.786Z,30.87
2019-02-27T04:18:42.826Z,31.03
2019-02-27T04:22:10.469Z,33.20
2019-02-27T04:24:37.640Z,36.30
2019-02-27T04:27:04.689Z,32.80
2019-02-27T04:29:31.777Z,37.67
2019-02-27T04:31:58.843Z,43.50
2019-02-27T04:34:25.904Z,37.07
2019-02-27T04:36:52.981Z,36.67
2019-02-27T04:39:20.071Z,40.23
2019-02-27T04:41:49.542Z,27.53
2019-02-27T04:44:16.147Z,34.60
2019-02-27T04:46:43.203Z,34.97
2019-02-27T04:49:10.251Z,41.60
2019-02-27T04:51:37.617Z,39.33
2019-02-27T04:54:07.235Z,33.50
2019-02-27T04:56:33.633Z,47.63
2019-02-27T04:59:00.726Z,39.90
2019-02-27T05:01:27.771Z,44.50
2019-02-27T05:03:54.837Z,44.30
2019-02-27T05:06:21.903Z,41.37
2019-02-27T05:08:48.968Z,29.57
2019-02-27T05:11:16.024Z,39.57
2019-02-27T05:13:44.205Z,32.93
2019-02-27T05:16:13.922Z,32.37
2019-02-27T05:18:40.407Z,32.23
2019-02-27T05:21:07.739Z,34.70
2019-02-27T05:23:34.781Z,43.17
2019-02-27T05:26:01.863Z,41.13
2019-02-27T05:28:29.049Z,31.13
2019-02-27T05:30:56.099Z,34.37
2019-02-27T05:33:23.227Z,36.97
2019-02-27T05:35:50.333Z,38.67
2019-02-27T05:38:17.374Z,28.73
2019-02-27T05:40:44.466Z,28.70
2019-02-27T05:43:13.915Z,31.13
2019-02-27T05:45:40.492Z,33.00
2019-02-27T05:48:07.650Z,37.50
2019-02-27T05:50:34.909Z,31.23
2019-02-27T05:53:01.979Z,38.27
2019-02-27T05:55:29.035Z,32.77
2019-02-27T05:57:56.112Z,28.57
2019-02-27T06:00:23.288Z,39.73
2019-02-27T06:02:50.347Z,32.67
2019-02-27T06:05:17.433Z,33.30
2019-02-27T06:07:44.612Z,31.67
2019-02-27T06:10:12.871Z,39.73
2019-02-27T06:12:40.769Z,28.87
2019-02-27T06:15:11.262Z,31.37
2019-02-27T06:17:43.340Z,36.00
2019-02-27T06:20:07.909Z,33.80
2019-02-27T06:22:35.740Z,31.60
2019-02-27T06:25:03.120Z,34.80
2019-02-27T06:27:31.658Z,36.00
2019-02-27T06:29:59.767Z,36.50
2019-02-27T06:32:26.948Z,36.30
2019-02-27T06:34:54.065Z,39.90
2019-02-27T06:38:01.931Z,43.63
2019-02-27T06:40:28.984Z,28.00
2019-02-27T06:42:56.896Z,40.97
2019-02-27T06:45:24.090Z,38.53
2019-02-27T06:47:51.197Z,36.83
2019-02-27T06:50:18.267Z,34.87
2019-02-27T06:52:45.474Z,33.50
2019-02-27T06:55:13.296Z,33.90
2019-02-27T06:57:41.913Z,29.33
2019-02-27T07:00:12.442Z,33.27
2019-02-27T07:02:39.609Z,41.43
2019-02-27T07:05:07.518Z,37.27
2019-02-27T07:07:34.609Z,34.93
2019-02-27T07:10:04.132Z,34.23
2019-02-27T07:12:31.279Z,33.90
2019-02-27T07:14:58.366Z,34.30
2019-02-27T07:17:25.479Z,38.53
2019-02-27T07:19:52.549Z,36.33
2019-02-27T07:22:19.615Z,39.20
2019-02-27T07:24:46.680Z,50.77
2019-02-27T07:27:13.886Z,39.87
2019-02-27T07:29:42.830Z,38.43
2019-02-27T07:32:09.972Z,41.57
2019-02-27T07:34:37.034Z,40.83
2019-02-27T07:37:04.138Z,40.20
2019-02-27T07:39:32.784Z,44.30
2019-02-27T07:42:00.346Z,43.57
2019-02-27T07:44:27.420Z,45.50
2019-02-27T07:46:57.131Z,48.50
2019-02-27T07:49:23.434Z,48.23
2019-02-27T07:51:50.514Z,45.70
2019-02-27T07:54:17.558Z,53.97
2019-02-27T07:56:44.636Z,53.07
2019-02-27T07:59:11.748Z,52.17
2019-02-27T08:01:43.700Z,43.83
2019-02-27T08:04:07.877Z,48.00
2019-02-27T08:06:37.635Z,47.10
2019-02-27T08:09:05.114Z,52.33
2019-02-27T08:11:32.265Z,40.67
2019-02-27T08:14:00.708Z,36.67
2019-02-27T08:16:28.449Z,44.90
2019-02-27T08:18:55.514Z,39.77
2019-02-27T08:21:22.623Z,29.30
2019-02-27T08:23:49.695Z,36.23
2019-02-27T08:26:18.419Z,29.50
2019-02-27T08:28:45.666Z,32.20
2019-02-27T08:31:12.713Z,28.20
2019-02-27T08:33:39.761Z,32.37
2019-02-27T08:36:06.881Z,29.00
2019-02-27T08:38:34.004Z,44.57
2019-02-27T08:41:01.155Z,34.37
2019-02-27T08:43:30.363Z,22.13
2019-02-27T08:45:57.216Z,26.00
2019-02-27T08:48:24.275Z,26.43
2019-02-27T08:50:51.375Z,23.87
2019-02-27T08:53:18.562Z,24.27
2019-02-27T08:55:45.912Z,20.03
2019-02-27T08:58:13.034Z,24.90
2019-02-27T09:00:40.472Z,21.90
2019-02-27T09:03:07.552Z,27.23
2019-02-27T09:05:34.679Z,21.10
2019-02-27T09:08:01.745Z,32.03
2019-02-27T09:10:30.616Z,20.77
2019-02-27T09:13:05.219Z,21.93
2019-02-27T09:15:26.870Z,21.23
2019-02-27T09:17:53.926Z,18.73
2019-02-27T09:20:21.068Z,26.97
2019-02-27T09:22:48.213Z,16.60
2019-02-27T09:25:15.810Z,28.93
2019-02-27T09:27:42.924Z,20.60
2019-02-27T09:30:11.702Z,24.03
2019-02-27T09:32:38.887Z,21.37
2019-02-27T09:35:06.983Z,17.17
2019-02-27T09:37:34.054Z,18.53
2019-02-27T09:40:04.750Z,22.43
2019-02-27T09:42:30.108Z,23.87
2019-02-27T09:44:57.300Z,22.13
2019-02-27T09:47:25.909Z,22.60
2019-02-27T09:49:53.365Z,22.77
2019-02-27T09:52:20.422Z,19.13
2019-02-27T09:54:47.601Z,20.37
2019-02-27T09:57:14.755Z,23.00
2019-02-27T09:59:41.832Z,26.23
2019-02-27T10:02:12.496Z,18.97
2019-02-27T10:04:39.518Z,23.00
2019-02-27T10:07:06.589Z,28.03
2019-02-27T10:09:35.449Z,19.27
2019-02-27T10:12:03.685Z,17.83
2019-02-27T10:14:30.785Z,24.70
2019-02-27T10:16:57.881Z,17.60
2019-02-27T10:19:26.860Z,17.13
2019-02-27T10:21:54.069Z,20.47
2019-02-27T10:24:21.124Z,19.63
2019-02-27T10:26:48.208Z,19.87
2019-02-27T10:29:15.258Z,16.57
2019-02-27T10:31:42.299Z,18.60
2019-02-27T10:34:09.390Z,37.87
2019-02-27T10:36:39.039Z,21.37
2019-02-27T10:39:06.162Z,16.93
2019-02-27T10:41:33.268Z,16.70
2019-02-27T10:44:00.301Z,16.03
2019-02-27T10:46:27.463Z,13.07
2019-02-27T10:48:54.576Z,18.37
2019-02-27T10:51:21.682Z,16.63
2019-02-27T10:53:50.332Z,13.40
2019-02-27T10:56:17.547Z,13.17
2019-02-27T10:58:47.669Z,11.87
2019-02-27T11:01:14.554Z,13.50
2019-02-27T11:03:41.807Z,13.87
2019-02-27T11:06:08.917Z,17.23
2019-02-27T11:08:35.994Z,10.87
2019-02-27T11:11:03.278Z,13.70
2019-02-27T11:13:30.323Z,14.50
2019-02-27T11:15:57.429Z,14.27
2019-02-27T11:18:24.557Z,12.07
2019-02-27T11:24:32.473Z,11.77
2019-02-27T11:26:59.515Z,10.50
2019-02-27T11:29:26.560Z,15.00
2019-02-27T11:31:53.697Z,9.80
2019-02-27T11:34:20.737Z,11.63
2019-02-27T11:36:47.800Z,10.70
2019-02-27T11:39:15.166Z,10.27
2019-02-27T11:41:42.230Z,7.43
2019-02-27T11:44:14.155Z,8.13
2019-02-27T11:46:38.974Z,13.10
2019-02-27T11:49:07.240Z,12.17
2019-02-27T11:51:34.443Z,9.37
2019-02-27T11:54:01.454Z,8.73
2019-02-27T11:56:28.509Z,9.57
2019-02-27T11:58:55.644Z,7.90
2019-02-27T12:01:22.862Z,8.30
2019-02-27T12:03:49.917Z,11.47
2019-02-27T12:06:17.141Z,9.17
2019-02-27T12:08:44.341Z,13.37
2019-02-27T12:11:13.279Z,7.83
2019-02-27T12:13:40.586Z,10.40
2019-02-27T12:16:07.818Z,9.77
2019-02-27T12:18:35.244Z,9.50
2019-02-27T12:21:02.322Z,11.57
2019-02-27T12:23:29.372Z,9.50
2019-02-27T12:25:56.498Z,14.87
2019-02-27T12:28:26.563Z,12.53
2019-02-27T12:30:53.656Z,12.17
2019-02-27T12:33:20.722Z,11.77
2019-02-27T12:35:47.855Z,9.57
2019-02-27T12:38:14.959Z,12.00
2019-02-27T12:40:41.989Z,13.13
2019-02-27T12:43:09.057Z,19.73
2019-02-27T12:45:36.133Z,12.47
2019-02-27T12:48:03.205Z,17.27
2019-02-27T12:50:31.352Z,10.93
2019-02-27T12:52:58.778Z,14.93
2019-02-27T12:55:25.865Z,13.37
2019-02-27T12:57:53.105Z,16.33
2019-02-27T13:00:25.568Z,13.47
2019-02-27T13:02:52.707Z,17.50
2019-02-27T13:05:19.899Z,12.63
2019-02-27T13:07:47.028Z,14.80
2019-02-27T13:10:15.949Z,12.50
2019-02-27T13:12:43.087Z,19.23
2019-02-27T13:15:11.648Z,15.63
2019-02-27T13:17:38.770Z,16.00
2019-02-27T13:20:11.725Z,14.23
2019-02-27T13:22:40.481Z,14.10
2019-02-27T13:25:07.658Z,17.07
2019-02-27T13:27:34.819Z,18.37
2019-02-27T13:30:08.845Z,12.93
2019-02-27T13:32:30.913Z,11.47
2019-02-27T13:34:59.114Z,20.70
2019-02-27T13:37:26.185Z,11.33
2019-02-27T13:39:53.300Z,14.00
2019-02-27T13:42:20.344Z,8.47
2019-02-27T13:44:47.485Z,15.10
2019-02-27T13:47:20.405Z,8.97
2019-02-27T13:49:48.138Z,11.03
2019-02-27T13:52:15.313Z,11.27
2019-02-27T13:54:42.510Z,10.97
2019-02-27T13:57:09.820Z,13.30
2019-02-27T13:59:36.871Z,17.23
2019-02-27T14:02:04.896Z,12.67
2019-02-27T14:04:32.062Z,11.57
2019-02-27T14:06:59.283Z,10.73
2019-02-27T14:09:26.363Z,23.03
2019-02-27T14:11:53.466Z,14.67
2019-02-27T14:14:20.504Z,11.43
2019-02-27T14:16:49.267Z,11.03
2019-02-27T14:19:16.492Z,10.90
2019-02-27T14:21:43.547Z,35.50
2019-02-27T14:24:10.617Z,21.93
2019-02-27T14:26:38.272Z,13.50
2019-02-27T14:29:06.785Z,17.90
2019-02-27T14:31:33.839Z,12.73
2019-02-27T14:34:01.048Z,11.17
2019-02-27T14:36:28.115Z,12.47
2019-02-27T14:38:56.494Z,15.70
2019-02-27T14:41:23.993Z,16.23
2019-02-27T14:43:51.118Z,12.00
2019-02-27T14:46:18.185Z,14.53
2019-02-27T14:48:45.233Z,15.23
2019-02-27T14:51:12.329Z,16.33
2019-02-27T14:53:39.552Z,21.53
2019-02-27T14:56:09.247Z,13.23
2019-02-27T14:58:35.716Z,12.70
2019-02-27T15:01:04.070Z,21.33
2019-02-27T15:03:31.158Z,16.50
2019-02-27T15:05:58.289Z,14.37
2019-02-27T15:08:26.029Z,11.10
2019-02-27T15:10:53.248Z,17.03
2019-02-27T15:13:20.407Z,12.93
2019-02-27T15:15:47.530Z,13.77
2019-02-27T15:18:14.683Z,13.83
2019-02-27T15:20:42.057Z,13.60
2019-02-27T15:23:09.124Z,13.87
2019-02-27T15:25:36.186Z,12.70
2019-02-27T15:28:03.341Z,10.37
2019-02-27T15:30:30.407Z,13.73
2019-02-27T15:32:57.783Z,16.77
2019-02-27T15:35:24.974Z,12.43
2019-02-27T15:37:52.241Z,16.27
2019-02-27T15:40:20.358Z,14.00
2019-02-27T15:42:47.867Z,18.07
2019-02-27T15:45:15.782Z,13.97
2019-02-27T15:47:42.844Z,12.10
2019-02-27T15:50:11.867Z,13.70
2019-02-27T15:52:40.691Z,12.73
2019-02-27T15:55:08.287Z,15.30
2019-02-27T15:57:35.372Z,17.73
2019-02-27T16:00:02.508Z,12.97
2019-02-27T16:02:29.599Z,27.07
2019-02-27T16:04:56.776Z,13.40
2019-02-27T16:07:23.942Z,17.77
2019-02-27T16:09:51.037Z,19.67
2019-02-27T16:12:19.911Z,15.70
2019-02-27T16:14:47.026Z,17.93
2019-02-27T16:17:15.843Z,17.53
2019-02-27T16:19:44.694Z,19.60
2019-02-27T16:22:12.080Z,16.30
2019-02-27T16:24:40.411Z,20.57
2019-02-27T16:27:08.731Z,14.60
2019-02-27T16:29:35.896Z,17.20
2019-02-27T16:32:03.034Z,18.60
2019-02-27T16:34:33.297Z,13.23
2019-02-27T16:36:59.226Z,14.67
2019-02-27T16:39:27.660Z,19.97
2019-02-27T16:42:13.811Z,16.37
2019-02-27T16:44:42.118Z,20.50
2019-02-27T16:47:09.236Z,13.77
2019-02-27T16:49:36.405Z,19.03
2019-02-27T16:52:07.806Z,18.33
2019-02-27T16:54:32.422Z,40.97
2019-02-27T16:56:59.493Z,42.17
2019-02-27T16:59:26.600Z,53.17
2019-02-27T17:01:53.775Z,47.70
2019-02-27T17:04:20.844Z,41.17
2019-02-27T17:06:49.205Z,40.83
2019-02-27T17:09:18.820Z,32.60
2019-02-27T17:11:45.969Z,25.60
2019-02-27T17:14:13.054Z,66.07
2019-02-27T17:16:44.508Z,142.43
2019-02-27T17:19:23.263Z,156.67
2019-02-27T17:21:50.390Z,139.93
2019-02-27T17:24:21.198Z,101.77
2019-02-27T17:26:47.639Z,81.57
2019-02-27T17:29:14.893Z,77.43
2019-02-27T17:31:49.036Z,90.30
2019-02-27T17:34:13.779Z,81.77
2019-02-27T17:36:41.603Z,60.47
2019-02-27T17:39:08.678Z,47.30
2019-02-27T17:41:35.791Z,76.27
2019-02-27T17:44:04.833Z,64.93
2019-02-27T17:46:31.921Z,73.77
2019-02-27T17:48:59.026Z,84.27
2019-02-27T17:51:26.067Z,98.73
2019-02-27T17:53:55.080Z,73.13
2019-02-27T17:56:22.218Z,102.80
2019-02-27T17:58:49.513Z,101.30
2019-02-27T18:01:24.886Z,46.10
2019-02-27T18:03:48.505Z,51.27
2019-02-27T18:06:15.850Z,64.23
2019-02-27T18:08:42.936Z,73.10
2019-02-27T18:11:12.305Z,100.73
2019-02-27T18:13:39.053Z,75.83
2019-02-27T18:16:06.202Z,68.27
2019-02-27T18:18:33.330Z,86.70
2019-02-27T18:21:00.544Z,57.73
2019-02-27T18:23:27.665Z,88.00
2019-02-27T18:25:54.787Z,97.97
2019-02-27T18:28:22.019Z,57.77
2019-02-27T18:30:52.893Z,70.30
2019-02-27T18:33:18.616Z,63.23
2019-02-27T18:35:45.889Z,69.70
2019-02-27T18:38:13.059Z,41.77
2019-02-27T18:40:42.711Z,50.03
2019-02-27T18:43:09.209Z,41.80
2019-02-27T18:45:48.161Z,54.27
2019-02-27T18:48:15.213Z,43.47
2019-02-27T18:50:42.551Z,44.13
2019-02-27T18:53:12.933Z,39.07
2019-02-27T18:55:38.643Z,39.30
2019-02-27T18:58:05.734Z,37.77
2019-02-27T19:00:33.432Z,48.60
2019-02-27T19:03:01.900Z,40.67
2019-02-27T19:05:29.089Z,37.07
2019-02-27T19:07:56.269Z,31.80
2019-02-27T19:10:23.599Z,38.27
2019-02-27T19:12:50.774Z,32.03
2019-02-27T19:15:18.984Z,29.73
2019-02-27T19:17:48.900Z,28.63
2019-02-27T19:20:23.614Z,27.73
2019-02-27T19:22:48.054Z,25.53
2019-02-27T19:25:15.256Z,28.70
2019-02-27T19:27:42.405Z,26.03
2019-02-27T19:30:12.150Z,27.70
2019-02-27T19:32:39.234Z,27.70
2019-02-27T19:35:06.518Z,29.03
2019-02-27T19:37:36.368Z,26.67
2019-02-27T19:40:03.359Z,28.10
2019-02-27T19:42:30.430Z,30.17
2019-02-27T19:45:03.747Z,26.80
2019-02-27T19:47:26.713Z,29.17
2019-02-27T19:49:53.797Z,23.63
2019-02-27T19:52:21.004Z,30.30
2019-02-27T19:54:51.749Z,24.57
2019-02-27T19:57:17.293Z,24.00
2019-02-27T19:59:44.401Z,23.57
2019-02-27T20:02:11.477Z,23.77
2019-02-27T20:04:42.913Z,24.37
2019-02-27T20:07:07.791Z,18.27
2019-02-27T20:09:35.939Z,32.00
2019-02-27T20:12:03.113Z,21.40
2019-02-27T20:14:30.322Z,28.87
2019-02-27T20:16:57.384Z,29.67
2019-02-27T20:19:28.244Z,27.57
2019-02-27T20:21:53.736Z,25.03
2019-02-27T20:24:21.026Z,18.23
2019-02-27T20:26:48.125Z,18.57
2019-02-27T20:29:15.366Z,20.23
2019-02-27T20:31:42.498Z,20.60
2019-02-27T20:34:11.551Z,22.10
2019-02-27T20:36:38.565Z,25.90
2019-02-27T20:39:06.731Z,33.23
2019-02-27T20:41:33.778Z,26.57
2019-02-27T20:44:03.507Z,26.77
2019-02-27T20:46:29.967Z,29.47
2019-02-27T20:48:57.440Z,21.63
2019-02-27T20:51:24.558Z,24.67
2019-02-27T20:53:55.119Z,27.20
2019-02-27T20:56:20.773Z,21.23
2019-02-27T21:02:38.714Z,20.03
2019-02-27T21:05:09.528Z,31.73
2019-02-27T21:07:36.557Z,27.30
2019-02-27T21:10:04.263Z,28.60
2019-02-27T21:12:31.425Z,30.73
2019-02-27T21:14:58.596Z,29.13
2019-02-27T21:17:25.860Z,32.60
2019-02-27T21:20:12.451Z,23.93
2019-02-27T21:22:39.598Z,26.53
2019-02-27T21:25:07.213Z,22.53
2019-02-27T21:27:34.277Z,18.83
2019-02-27T21:30:01.512Z,29.03
2019-02-27T21:33:08.244Z,24.37
2019-02-27T21:35:41.688Z,28.77
2019-02-27T21:38:09.490Z,28.43
2019-02-27T21:40:36.952Z,32.67
2019-02-27T21:43:04.196Z,36.47
2019-02-27T21:49:32.282Z,28.60
2019-02-27T21:51:59.819Z,36.00
2019-02-27T21:54:26.876Z,34.30
2019-02-27T21:56:55.149Z,25.77
2019-02-27T21:59:22.370Z,25.87
2019-02-27T22:01:49.433Z,36.47
2019-02-27T22:04:16.542Z,30.13
2019-02-27T22:06:43.596Z,29.33
2019-02-27T22:09:13.627Z,33.80
2019-02-27T22:12:01.210Z,24.57
2019-02-27T22:14:28.990Z,32.63
2019-02-27T22:16:57.893Z,26.37
2019-02-27T22:19:25.011Z,25.00
2019-02-27T22:21:52.073Z,20.87
2019-02-27T22:24:21.001Z,27.87
2019-02-27T22:26:48.428Z,30.80
2019-02-27T22:29:15.496Z,30.53
2019-02-27T22:31:57.963Z,34.73
2019-02-27T22:34:27.735Z,36.93
2019-02-27T22:36:54.091Z,38.70
2019-02-27T22:39:21.243Z,23.00
2019-02-27T22:41:48.305Z,38.27
2019-02-27T22:44:15.408Z,30.50
2019-02-27T22:46:44.426Z,33.93
2019-02-27T22:49:11.456Z,36.80
2019-02-27T22:51:38.530Z,40.87
2019-02-27T22:54:05.618Z,29.83
2019-02-27T22:56:32.680Z,34.23
2019-02-27T22:59:03.113Z,32.03
2019-02-27T23:01:39.584Z,33.67
2019-02-27T23:04:49.423Z,31.30
2019-02-27T23:07:20.545Z,42.17
2019-02-27T23:09:45.702Z,45.20
2019-02-27T23:12:13.056Z,67.70
2019-02-27T23:14:40.242Z,55.80
2019-02-27T23:17:07.301Z,48.03
2019-02-27T23:19:34.395Z,60.07
2019-02-27T23:22:01.509Z,52.67
2019-02-27T23:24:28.647Z,62.27
2019-02-27T23:26:55.744Z,70.07
2019-02-27T23:29:23.054Z,51.27
2019-02-27T23:31:50.206Z,54.00
2019-02-27T23:34:17.269Z,59.60
2019-02-27T23:36:44.484Z,66.23
2019-02-27T23:39:11.543Z,58.90
2019-02-27T23:41:38.592Z,59.67
2019-02-27T23:44:06.090Z,79.10
2019-02-27T23:46:33.277Z,89.30
2019-02-27T23:49:00.349Z,68.00
2019-02-27T23:51:27.422Z,63.90
2019-02-27T23:53:54.524Z,73.30
2019-02-27T23:56:21.623Z,58.83
2019-02-27T23:58:48.669Z,63.10
